Time;durP1;ratioP1;P1;durP2;ratioP2;P2;SDS_P1;SDS_P2;PMS_P1;PMS_P2;Temp;Humidity;BMP_temperature;BMP_pressure;BME280_temperature;BME280_humidity;BME280_pressure;Samples;Min_cycle;Max_cycle;Signal;HPM_P1;HPM_P2
2023/01/11 00:00:22;;;;;;;32.28;5.30;;;;;;;;;;5033960;28;20413;-63
2023/01/11 00:02:48;;;;;;;35.20;5.53;;;;;;;;;;5032855;28;20382;-62
2023/01/11 00:05:14;;;;;;;28.48;6.65;;;;;;;;;;5034706;28;20108;-63
2023/01/11 00:07:40;;;;;;;24.92;3.67;;;;;;;;;;5034486;28;20026;-63
2023/01/11 00:10:07;;;;;;;34.92;5.03;;;;;;;;;;5034796;28;20037;-63
2023/01/11 00:12:33;;;;;;;32.20;4.50;;;;;;;;;;5034837;28;20034;-63
2023/01/11 00:14:59;;;;;;;28.40;4.97;;;;;;;;;;5034455;28;20037;-62
2023/01/11 00:17:25;;;;;;;37.08;4.35;;;;;;;;;;5034687;28;20030;-63
2023/01/11 00:19:51;;;;;;;35.92;4.95;;;;;;;;;;5034524;28;20030;-63
2023/01/11 00:22:19;;;;;;;25.88;4.13;;;;;;;;;;5034308;28;20029;-63
2023/01/11 00:24:45;;;;;;;31.45;7.00;;;;;;;;;;5034355;28;20033;-63
2023/01/11 00:27:11;;;;;;;30.55;5.32;;;;;;;;;;5034454;28;20038;-63
2023/01/11 00:29:37;;;;;;;38.80;5.68;;;;;;;;;;5034607;28;20055;-63
2023/01/11 00:32:03;;;;;;;31.35;4.80;;;;;;;;;;5034154;28;20034;-63
2023/01/11 00:34:29;;;;;;;29.98;4.65;;;;;;;;;;5034310;28;20374;-63
2023/01/11 00:36:55;;;;;;;35.70;5.68;;;;;;;;;;5033785;28;20026;-63
2023/01/11 00:39:21;;;;;;;37.75;4.63;;;;;;;;;;5034417;28;20040;-63
2023/01/11 00:50:02;;;;;;;40.33;6.28;;;;;;;;;;5032624;28;20455;-63
2023/01/11 00:52:29;;;;;;;37.63;5.50;;;;;;;;;;5033814;28;20029;-63
2023/01/11 00:54:55;;;;;;;35.50;4.30;;;;;;;;;;5033554;28;20037;-63
2023/01/11 00:57:21;;;;;;;30.30;5.72;;;;;;;;;;5034028;28;20018;-63
2023/01/11 00:59:47;;;;;;;40.92;6.07;;;;;;;;;;5033739;28;20038;-63
2023/01/11 01:02:13;;;;;;;37.05;6.20;;;;;;;;;;5032190;28;20108;-63
2023/01/11 01:04:39;;;;;;;33.53;4.97;;;;;;;;;;5033759;28;20462;-63
2023/01/11 01:07:06;;;;;;;28.38;5.63;;;;;;;;;;5033181;28;20062;-63
2023/01/11 01:09:32;;;;;;;28.88;4.80;;;;;;;;;;5033634;28;20045;-62
2023/01/11 01:12:00;;;;;;;31.35;5.65;;;;;;;;;;5033463;28;20051;-62
2023/01/11 01:14:30;;;;;;;36.75;6.45;;;;;;;;;;5033200;28;20076;-63
2023/01/11 01:17:03;;;;;;;36.53;4.88;;;;;;;;;;5033483;28;20056;-63
2023/01/11 01:19:30;;;;;;;33.83;5.93;;;;;;;;;;5033317;28;20020;-63
2023/01/11 01:21:57;;;;;;;23.63;4.88;;;;;;;;;;5033085;28;20374;-63
2023/01/11 01:24:24;;;;;;;34.50;4.28;;;;;;;;;;5033409;28;20047;-63
2023/01/11 01:26:50;;;;;;;28.42;4.55;;;;;;;;;;5033163;28;20075;-62
2023/01/11 01:29:16;;;;;;;32.70;5.82;;;;;;;;;;5033282;28;20040;-63
2023/01/11 01:31:43;;;;;;;38.20;5.80;;;;;;;;;;5033384;28;20509;-63
2023/01/11 01:34:12;;;;;;;29.88;4.57;;;;;;;;;;5032630;28;20029;-63
2023/01/11 01:36:39;;;;;;;33.63;5.22;;;;;;;;;;5033132;28;20075;-63
2023/01/11 01:39:05;;;;;;;41.47;5.45;;;;;;;;;;5032805;28;20034;-63
2023/01/11 01:41:32;;;;;;;30.33;5.03;;;;;;;;;;5033137;28;20036;-63
2023/01/11 01:43:59;;;;;;;23.83;4.97;;;;;;;;;;5032976;28;20035;-63
2023/01/11 01:46:30;;;;;;;39.88;5.05;;;;;;;;;;5033144;28;20025;-62
2023/01/11 01:48:57;;;;;;;26.63;4.75;;;;;;;;;;5032247;28;20025;-63
2023/01/11 01:51:26;;;;;;;40.60;6.78;;;;;;;;;;5032923;28;20033;-63
2023/01/11 01:53:53;;;;;;;39.28;5.80;;;;;;;;;;5033062;28;20029;-63
2023/01/11 01:56:22;;;;;;;29.75;4.78;;;;;;;;;;5032837;28;20045;-63
2023/01/11 01:58:51;;;;;;;32.78;5.10;;;;;;;;;;5032882;28;20030;-62
2023/01/11 02:04:07;;;;;;;34.53;7.03;;;;;;;;;;5032452;28;20109;-63
2023/01/11 02:06:34;;;;;;;33.40;5.15;;;;;;;;;;5032948;28;20071;-63
2023/01/11 02:09:02;;;;;;;33.58;6.07;;;;;;;;;;5032483;28;20033;-63
2023/01/11 02:11:29;;;;;;;33.67;4.78;;;;;;;;;;5031399;28;20367;-63
2023/01/11 02:13:56;;;;;;;37.53;5.82;;;;;;;;;;5032672;28;20022;-63
2023/01/11 02:16:22;;;;;;;28.88;5.00;;;;;;;;;;5032778;28;20033;-62
2023/01/11 02:18:48;;;;;;;33.70;5.05;;;;;;;;;;5032319;28;20022;-62
2023/01/11 02:21:33;;;;;;;37.28;4.93;;;;;;;;;;5032336;28;20045;-62
2023/01/11 02:24:22;;;;;;;28.90;4.97;;;;;;;;;;5032545;28;20038;-62
2023/01/11 02:27:00;;;;;;;34.78;6.40;;;;;;;;;;5035005;28;20027;-62
2023/01/11 02:29:26;;;;;;;36.35;5.75;;;;;;;;;;5036554;28;20029;-63
2023/01/11 02:32:12;;;;;;;43.80;6.93;;;;;;;;;;5036561;28;20237;-63
2023/01/11 02:34:45;;;;;;;45.95;7.32;;;;;;;;;;5036086;28;20042;-63
2023/01/11 02:37:19;;;;;;;35.85;5.00;;;;;;;;;;5036572;28;20041;-62
2023/01/11 02:39:54;;;;;;;26.23;4.75;;;;;;;;;;5036742;28;20037;-62
2023/01/11 02:45:16;;;;;;;33.00;4.63;;;;;;;;;;5036278;28;20048;-62
2023/01/11 02:47:54;;;;;;;34.05;4.97;;;;;;;;;;5036168;28;20403;-62
2023/01/11 02:50:28;;;;;;;30.85;4.10;;;;;;;;;;5036400;28;20124;-62
2023/01/11 02:53:07;;;;;;;30.80;4.75;;;;;;;;;;5036346;28;20033;-62
2023/01/11 02:55:38;;;;;;;34.72;6.35;;;;;;;;;;5036158;28;20129;-63
2023/01/11 02:58:06;;;;;;;31.13;6.38;;;;;;;;;;5035980;28;20025;-63
2023/01/11 03:00:32;;;;;;;32.50;4.97;;;;;;;;;;5034840;28;20017;-63
2023/01/11 03:03:05;;;;;;;41.45;6.43;;;;;;;;;;5035722;28;20044;-63
2023/01/11 03:05:32;;;;;;;33.35;5.18;;;;;;;;;;5036081;28;20155;-63
2023/01/11 03:08:02;;;;;;;35.13;5.55;;;;;;;;;;5035780;28;20434;-63
2023/01/11 03:10:46;;;;;;;36.90;5.30;;;;;;;;;;5035974;28;20489;-63
2023/01/11 03:13:13;;;;;;;43.67;5.57;;;;;;;;;;5035799;28;20037;-63
2023/01/11 03:15:52;;;;;;;36.15;6.35;;;;;;;;;;5035769;28;20324;-62
2023/01/11 03:18:25;;;;;;;36.90;6.10;;;;;;;;;;5034222;28;20406;-63
2023/01/11 03:21:10;;;;;;;26.58;4.10;;;;;;;;;;5035938;28;20033;-62
2023/01/11 03:24:02;;;;;;;29.45;4.60;;;;;;;;;;5035763;28;20068;-62
2023/01/11 03:26:28;;;;;;;27.50;5.28;;;;;;;;;;5033373;28;20088;-62
2023/01/11 03:29:10;;;;;;;35.88;4.38;;;;;;;;;;5033567;28;20155;-62
2023/01/11 03:31:56;;;;;;;33.90;5.63;;;;;;;;;;5033106;28;20053;-63
2023/01/11 03:34:34;;;;;;;39.30;4.32;;;;;;;;;;5032995;28;20080;-63
2023/01/11 03:37:03;;;;;;;45.20;6.55;;;;;;;;;;5032940;28;20500;-62
2023/01/11 03:39:31;;;;;;;39.15;5.47;;;;;;;;;;5033085;28;20436;-62
2023/01/11 03:41:59;;;;;;;45.47;6.63;;;;;;;;;;5033222;28;20041;-62
2023/01/11 03:44:26;;;;;;;29.98;6.60;;;;;;;;;;5033021;28;20034;-62
2023/01/11 03:46:55;;;;;;;27.63;5.88;;;;;;;;;;5033239;28;20041;-63
2023/01/11 03:49:27;;;;;;;27.73;4.72;;;;;;;;;;5032831;28;20044;-62
2023/01/11 03:51:53;;;;;;;28.77;7.15;;;;;;;;;;5033097;28;20045;-62
2023/01/11 03:54:23;;;;;;;35.75;3.65;;;;;;;;;;5032820;28;20032;-62
2023/01/11 03:56:55;;;;;;;26.65;4.20;;;;;;;;;;5033181;28;20464;-62
2023/01/11 03:59:21;;;;;;;;;;;;;;;;;;5033017;28;20030;-63
2023/01/11 04:01:47;;;;;;;25.02;5.45;;;;;;;;;;5032873;28;20008;-63
2023/01/11 04:04:14;;;;;;;23.13;3.13;;;;;;;;;;5034615;28;20521;-63
2023/01/11 04:06:40;;;;;;;18.23;3.20;;;;;;;;;;5034689;28;20029;-63
2023/01/11 04:09:06;;;;;;;21.05;3.30;;;;;;;;;;5034947;28;20038;-62
2023/01/11 04:11:32;;;;;;;25.98;4.43;;;;;;;;;;5034737;28;20029;-62
2023/01/11 04:13:59;;;;;;;19.83;2.83;;;;;;;;;;5034580;28;20041;-63
2023/01/11 04:16:25;;;;;;;22.65;4.15;;;;;;;;;;5034755;28;20067;-63
2023/01/11 04:18:51;;;;;;;24.75;3.05;;;;;;;;;;5034757;28;20067;-62
2023/01/11 04:21:17;;;;;;;23.27;3.40;;;;;;;;;;5034526;28;20029;-62
2023/01/11 04:23:44;;;;;;;28.52;4.65;;;;;;;;;;5034715;28;20040;-63
2023/01/11 04:26:10;;;;;;;17.52;3.47;;;;;;;;;;5034458;28;20026;-63
2023/01/11 04:28:36;;;;;;;21.38;3.92;;;;;;;;;;5034249;28;20450;-62
2023/01/11 04:31:02;;;;;;;52.25;6.43;;;;;;;;;;5034557;28;20029;-62
2023/01/11 04:33:28;;;;;;;25.58;4.93;;;;;;;;;;5034209;28;20041;-62
2023/01/11 04:35:54;;;;;;;15.85;2.75;;;;;;;;;;5034250;28;20080;-62
2023/01/11 04:38:23;;;;;;;22.60;3.45;;;;;;;;;;5021107;28;20104;-62
2023/01/11 04:42:17;;;;;;;17.98;2.60;;;;;;;;;;5034208;28;20057;-63
2023/01/11 04:43:36;;;;;;;17.60;3.78;;;;;;;;;;5033392;28;20103;-62
2023/01/11 04:46:02;;;;;;;23.15;3.50;;;;;;;;;;5033426;28;20098;-62
2023/01/11 04:48:28;;;;;;;29.88;3.42;;;;;;;;;;5033157;28;20030;-63
2023/01/11 04:50:54;;;;;;;22.98;3.05;;;;;;;;;;5034019;28;20104;-63
2023/01/11 04:53:20;;;;;;;25.38;3.22;;;;;;;;;;5033921;28;20468;-62
2023/01/11 04:55:46;;;;;;;17.40;3.63;;;;;;;;;;5033949;28;20021;-62
2023/01/11 04:58:12;;;;;;;21.80;3.30;;;;;;;;;;5032738;28;20033;-62
2023/01/11 05:00:38;;;;;;;13.80;2.47;;;;;;;;;;5032253;28;20025;-63
2023/01/11 05:03:04;;;;;;;22.05;3.42;;;;;;;;;;5033495;28;20501;-62
2023/01/11 05:05:31;;;;;;;33.70;5.00;;;;;;;;;;5032709;28;20029;-63
2023/01/11 05:07:57;;;;;;;23.42;3.90;;;;;;;;;;5032791;28;20055;-62
2023/01/11 05:10:23;;;;;;;19.77;3.70;;;;;;;;;;5032300;28;20029;-63
2023/01/11 05:12:50;;;;;;;35.42;5.95;;;;;;;;;;5032849;28;20040;-63
2023/01/11 05:15:16;;;;;;;28.95;4.13;;;;;;;;;;5033527;28;20033;-62
2023/01/11 05:17:42;;;;;;;31.98;4.65;;;;;;;;;;5033573;28;20541;-63
2023/01/11 05:20:09;;;;;;;35.78;4.43;;;;;;;;;;5033394;28;20021;-62
2023/01/11 05:22:35;;;;;;;23.00;3.40;;;;;;;;;;5033368;28;20033;-62
2023/01/11 05:25:01;;;;;;;17.30;3.35;;;;;;;;;;5033532;28;20492;-62
2023/01/11 05:27:27;;;;;;;30.10;4.10;;;;;;;;;;5032839;28;20532;-62
2023/01/11 05:29:53;;;;;;;31.77;4.30;;;;;;;;;;5033293;28;20021;-63
2023/01/11 05:32:19;;;;;;;27.42;3.60;;;;;;;;;;5033067;28;20089;-62
2023/01/11 05:34:45;;;;;;;35.83;6.45;;;;;;;;;;5032895;28;20131;-63
2023/01/11 05:37:12;;;;;;;26.90;3.72;;;;;;;;;;5033251;28;20029;-62
2023/01/11 05:39:38;;;;;;;33.13;4.85;;;;;;;;;;5033248;28;20037;-63
2023/01/11 05:42:04;;;;;;;26.08;3.90;;;;;;;;;;5032845;28;20065;-63
2023/01/11 05:47:15;;;;;;;21.65;4.32;;;;;;;;;;5032403;28;20034;-62
2023/01/11 05:49:41;;;;;;;35.20;4.35;;;;;;;;;;5032693;28;20436;-62
2023/01/11 05:52:07;;;;;;;30.35;5.63;;;;;;;;;;5032892;28;20477;-62
2023/01/11 05:54:33;;;;;;;32.85;5.93;;;;;;;;;;5032856;28;20025;-62
2023/01/11 05:56:59;;;;;;;21.88;4.22;;;;;;;;;;5032628;28;20363;-62
2023/01/11 05:59:26;;;;;;;26.67;4.20;;;;;;;;;;5029837;28;20053;-62
2023/01/11 06:01:52;;;;;;;25.60;4.18;;;;;;;;;;5032078;28;20490;-62
2023/01/11 06:04:18;;;;;;;30.67;5.88;;;;;;;;;;5031965;28;20025;-63
2023/01/11 06:06:44;;;;;;;34.40;4.15;;;;;;;;;;5031022;28;20065;-62
2023/01/11 06:09:10;;;;;;;21.73;4.30;;;;;;;;;;5026268;28;20037;-63
2023/01/11 06:11:36;;;;;;;22.30;4.18;;;;;;;;;;5017151;28;20052;-63
2023/01/11 06:14:02;;;;;;;28.38;3.83;;;;;;;;;;5016033;28;20026;-63
2023/01/11 06:16:28;;;;;;;24.95;4.65;;;;;;;;;;5017486;28;20022;-63
2023/01/11 06:18:54;;;;;;;25.40;3.95;;;;;;;;;;5014515;28;20405;-63
2023/01/11 06:21:21;;;;;;;19.83;4.10;;;;;;;;;;5016048;28;20057;-63
2023/01/11 06:23:49;;;;;;;20.83;3.90;;;;;;;;;;5015817;28;20101;-63
2023/01/11 06:26:16;;;;;;;37.45;5.63;;;;;;;;;;5013448;28;20057;-63
2023/01/11 06:28:43;;;;;;;29.70;5.88;;;;;;;;;;5012951;28;20022;-63
2023/01/11 06:31:09;;;;;;;26.05;4.10;;;;;;;;;;5022237;28;20489;-67
2023/01/11 06:33:36;;;;;;;32.42;4.50;;;;;;;;;;5030493;28;20040;-64
2023/01/11 06:36:03;;;;;;;30.30;5.25;;;;;;;;;;5021130;28;20046;-63
2023/01/11 06:38:29;;;;;;;23.42;4.45;;;;;;;;;;5031376;28;20100;-64
2023/01/11 06:40:59;;;;;;;30.38;4.82;;;;;;;;;;5031776;28;20045;-64
2023/01/11 06:43:26;;;;;;;32.38;5.00;;;;;;;;;;5031646;28;20044;-63
2023/01/11 06:45:52;;;;;;;36.47;5.85;;;;;;;;;;5032479;28;20104;-63
2023/01/11 06:48:19;;;;;;;34.80;4.78;;;;;;;;;;5032158;28;20030;-64
2023/01/11 06:50:48;;;;;;;34.72;5.90;;;;;;;;;;5032239;28;20044;-63
2023/01/11 06:53:15;;;;;;;33.67;6.97;;;;;;;;;;5032315;28;20033;-63
2023/01/11 06:55:41;;;;;;;32.03;6.10;;;;;;;;;;5031955;28;20022;-64
2023/01/11 06:58:07;;;;;;;31.05;5.15;;;;;;;;;;5032443;28;20029;-64
2023/01/11 07:00:33;;;;;;;31.90;5.15;;;;;;;;;;5031136;28;20009;-64
2023/01/11 07:03:03;;;;;;;30.10;4.88;;;;;;;;;;5012736;28;20523;-63
2023/01/11 07:05:29;;;;;;;39.17;5.75;;;;;;;;;;5012446;28;20038;-63
2023/01/11 07:07:55;;;;;;;24.70;5.25;;;;;;;;;;5012071;28;20033;-63
2023/01/11 07:10:22;;;;;;;37.97;6.80;;;;;;;;;;5012486;28;20025;-63
2023/01/11 07:12:48;;;;;;;35.67;7.50;;;;;;;;;;5020280;28;20454;-63
2023/01/11 07:15:14;;;;;;;32.45;7.30;;;;;;;;;;5022752;28;20577;-64
2023/01/11 07:17:40;;;;;;;32.05;7.40;;;;;;;;;;5034862;28;20036;-64
2023/01/11 07:20:06;;;;;;;35.40;5.53;;;;;;;;;;5035954;28;20036;-64
2023/01/11 07:22:34;;;;;;;33.58;7.00;;;;;;;;;;5035388;28;20037;-64
2023/01/11 07:25:00;;;;;;;39.85;4.55;;;;;;;;;;5035739;28;20049;-63
2023/01/11 07:27:26;;;;;;;38.95;6.28;;;;;;;;;;5035667;28;20032;-63
2023/01/11 07:29:52;;;;;;;42.80;4.97;;;;;;;;;;5035328;28;20037;-63
2023/01/11 07:32:19;;;;;;;36.78;7.18;;;;;;;;;;5035418;28;20488;-64
2023/01/11 07:34:45;;;;;;;24.50;6.38;;;;;;;;;;5035163;28;20053;-63
2023/01/11 07:37:12;;;;;;;33.00;5.30;;;;;;;;;;5035339;28;20061;-64
2023/01/11 07:39:38;;;;;;;28.45;4.68;;;;;;;;;;5035172;28;20041;-64
2023/01/11 07:44:49;;;;;;;24.23;4.80;;;;;;;;;;5035000;28;20083;-63
2023/01/11 07:47:15;;;;;;;34.30;4.97;;;;;;;;;;5035472;28;20056;-63
2023/01/11 07:49:41;;;;;;;18.27;5.22;;;;;;;;;;5034913;28;20029;-63
2023/01/11 07:52:07;;;;;;;25.95;3.95;;;;;;;;;;5034733;28;20063;-63
2023/01/11 07:54:33;;;;;;;35.17;4.57;;;;;;;;;;5035105;28;20025;-63
2023/01/11 07:56:59;;;;;;;37.95;4.88;;;;;;;;;;5035139;28;20417;-63
2023/01/11 07:59:25;;;;;;;37.17;5.85;;;;;;;;;;5034896;28;20032;-63
2023/01/11 08:01:52;;;;;;;31.65;4.75;;;;;;;;;;5035158;28;20083;-63
2023/01/11 08:04:18;;;;;;;22.40;4.15;;;;;;;;;;5035049;28;20351;-63
2023/01/11 08:06:44;;;;;;;33.13;6.00;;;;;;;;;;5034465;28;20104;-64
2023/01/11 08:09:10;;;;;;;33.45;4.20;;;;;;;;;;5035076;28;20021;-63
2023/01/11 08:14:39;;;;;;;39.95;4.15;;;;;;;;;;5034859;28;20040;-63
2023/01/11 08:17:10;;;;;;;25.02;4.55;;;;;;;;;;5034922;28;20034;-63
2023/01/11 08:19:37;;;;;;;29.55;5.20;;;;;;;;;;5034539;28;20075;-63
2023/01/11 08:22:03;;;;;;;25.88;4.15;;;;;;;;;;5034397;28;20101;-63
2023/01/11 08:24:29;;;;;;;22.88;3.75;;;;;;;;;;5033378;28;20040;-63
2023/01/11 08:26:56;;;;;;;24.10;4.65;;;;;;;;;;5034578;28;20104;-63
2023/01/11 08:29:22;;;;;;;28.48;4.60;;;;;;;;;;5034491;28;20474;-63
2023/01/11 08:31:48;;;;;;;26.00;3.70;;;;;;;;;;5034136;28;20029;-63
2023/01/11 08:34:14;;;;;;;42.60;5.07;;;;;;;;;;5034396;28;20057;-63
2023/01/11 08:36:40;;;;;;;29.33;4.70;;;;;;;;;;5033901;28;20516;-63
2023/01/11 08:39:07;;;;;;;18.70;3.28;;;;;;;;;;5034442;28;20025;-63
2023/01/11 08:41:33;;;;;;;31.27;4.30;;;;;;;;;;5034119;28;20790;-64
2023/01/11 08:43:59;;;;;;;24.67;3.92;;;;;;;;;;5034060;28;20033;-63
2023/01/11 08:46:25;;;;;;;23.38;4.00;;;;;;;;;;5034433;28;20025;-63
2023/01/11 08:48:54;;;;;;;31.23;3.90;;;;;;;;;;5033639;28;20034;-63
2023/01/11 08:51:21;;;;;;;25.08;4.38;;;;;;;;;;5033999;28;20029;-63
2023/01/11 08:53:47;;;;;;;21.70;3.88;;;;;;;;;;5033879;28;20025;-63
2023/01/11 08:56:13;;;;;;;29.33;4.07;;;;;;;;;;5033986;28;20040;-63
2023/01/11 08:58:39;;;;;;;29.50;3.97;;;;;;;;;;5033857;28;20034;-63
2023/01/11 09:01:07;;;;;;;19.55;3.38;;;;;;;;;;5034052;28;20021;-63
2023/01/11 09:03:34;;;;;;;22.95;4.15;;;;;;;;;;5033429;28;20043;-63
2023/01/11 09:06:00;;;;;;;23.35;4.60;;;;;;;;;;5033767;28;20037;-63
2023/01/11 09:08:27;;;;;;;25.73;4.32;;;;;;;;;;5033887;28;20038;-63
2023/01/11 09:10:55;;;;;;;32.25;4.32;;;;;;;;;;5033289;28;20815;-63
2023/01/11 09:13:21;;;;;;;18.65;3.78;;;;;;;;;;5033712;28;20048;-63
2023/01/11 09:15:47;;;;;;;36.38;4.68;;;;;;;;;;5033696;28;20029;-63
2023/01/11 09:18:14;;;;;;;31.80;3.97;;;;;;;;;;5033441;28;20041;-63
2023/01/11 09:20:40;;;;;;;32.80;6.22;;;;;;;;;;5030230;28;20041;-63
2023/01/11 09:23:06;;;;;;;27.75;3.90;;;;;;;;;;5033129;28;20029;-63
2023/01/11 09:25:33;;;;;;;32.80;6.18;;;;;;;;;;5033665;28;20037;-63
2023/01/11 09:27:59;;;;;;;27.05;4.53;;;;;;;;;;5041159;28;20040;-63
2023/01/11 09:30:25;;;;;;;30.85;5.85;;;;;;;;;;5037088;28;20029;-63
2023/01/11 09:32:51;;;;;;;23.25;4.80;;;;;;;;;;5037085;28;20029;-64
2023/01/11 09:35:18;;;;;;;29.15;4.25;;;;;;;;;;5032762;28;20168;-63
2023/01/11 09:37:48;;;;;;;31.65;4.53;;;;;;;;;;5032870;28;20031;-64
2023/01/11 09:40:19;;;;;;;29.60;6.82;;;;;;;;;;5032928;28;20035;-64
2023/01/11 09:42:48;;;;;;;28.98;6.03;;;;;;;;;;5031967;28;20113;-64
2023/01/11 09:45:19;;;;;;;21.42;4.22;;;;;;;;;;5032907;28;20490;-64
2023/01/11 09:47:45;;;;;;;24.63;4.93;;;;;;;;;;5032074;28;20533;-64
2023/01/11 09:50:17;;;;;;;23.15;4.90;;;;;;;;;;5032969;28;20032;-63
2023/01/11 09:52:50;;;;;;;23.75;4.50;;;;;;;;;;5032838;28;20033;-64
2023/01/11 09:55:24;;;;;;;24.52;6.30;;;;;;;;;;5032899;28;20044;-64
2023/01/11 09:58:08;;;;;;;38.58;6.15;;;;;;;;;;5031840;28;20034;-64
2023/01/11 10:00:52;;;;;;;30.13;5.38;;;;;;;;;;5032806;28;20116;-64
2023/01/11 10:03:18;;;;;;;22.25;5.38;;;;;;;;;;5032649;28;20485;-64
2023/01/11 10:05:50;;;;;;;33.92;4.70;;;;;;;;;;5032740;28;20025;-64
2023/01/11 10:08:38;;;;;;;30.45;5.68;;;;;;;;;;5031003;28;20029;-64
2023/01/11 10:11:07;;;;;;;28.17;4.50;;;;;;;;;;5019594;28;20025;-64
2023/01/11 10:13:47;;;;;;;27.58;4.75;;;;;;;;;;5027605;28;20041;-64
2023/01/11 10:16:23;;;;;;;24.50;4.25;;;;;;;;;;5033387;28;20192;-64
2023/01/11 10:19:13;;;;;;;36.53;6.30;;;;;;;;;;5023287;28;20171;-64
2023/01/11 10:21:49;;;;;;;32.05;4.68;;;;;;;;;;5025831;28;20025;-64
2023/01/11 10:24:15;;;;;;;20.25;4.78;;;;;;;;;;5025579;28;20084;-64
2023/01/11 10:26:41;;;;;;;27.35;4.43;;;;;;;;;;5028003;28;20017;-64
2023/01/11 10:29:28;;;;;;;30.95;4.68;;;;;;;;;;5022806;28;20023;-64
2023/01/11 10:40:30;;;;;;;24.90;4.88;;;;;;;;;;5036548;28;20068;-64
2023/01/11 10:43:02;;;;;;;29.77;4.70;;;;;;;;;;5045953;28;20071;-64
2023/01/11 10:45:49;;;;;;;20.20;3.37;;;;;;;;;;5043627;28;20105;-64
2023/01/11 10:48:32;;;;;;;24.70;4.00;;;;;;;;;;5046655;28;20029;-64
2023/01/11 10:51:02;;;;;;;23.63;5.07;;;;;;;;;;5046069;28;20069;-64
2023/01/11 10:53:38;;;;;;;31.50;4.82;;;;;;;;;;5040232;28;20031;-65
2023/01/11 10:56:22;;;;;;;31.90;4.93;;;;;;;;;;5053668;28;20187;-64
2023/01/11 10:58:56;;;;;;;26.58;3.80;;;;;;;;;;5053484;28;20021;-64
2023/01/11 11:01:27;;;;;;;23.98;4.68;;;;;;;;;;5054081;28;20108;-64
2023/01/11 11:04:12;;;;;;;36.13;5.93;;;;;;;;;;5053921;28;20055;-64
2023/01/11 11:06:38;;;;;;;24.40;5.53;;;;;;;;;;5052609;28;20459;-64
2023/01/11 11:09:22;;;;;;;29.23;6.03;;;;;;;;;;5053646;28;20384;-64
2023/01/11 11:11:55;;;;;;;29.75;4.32;;;;;;;;;;5047470;28;20033;-64
2023/01/11 11:14:21;;;;;;;;;;;;;;;;;;5041240;28;20120;-64
2023/01/11 11:17:07;;;;;;;30.40;4.43;;;;;;;;;;5023839;28;19906;-65
2023/01/11 11:19:33;;;;;;;35.65;4.55;;;;;;;;;;5028607;28;20043;-65
2023/01/11 11:22:00;;;;;;;35.40;4.55;;;;;;;;;;5025489;28;20501;-66
2023/01/11 11:24:45;;;;;;;26.95;5.03;;;;;;;;;;5030003;28;20029;-64
2023/01/11 11:27:20;;;;;;;27.58;4.30;;;;;;;;;;5036008;28;20116;-64
2023/01/11 11:29:53;;;;;;;21.35;3.72;;;;;;;;;;5029510;28;20057;-65
2023/01/11 11:32:30;;;;;;;24.70;4.10;;;;;;;;;;5034468;28;20069;-65
2023/01/11 11:34:57;;;;;;;25.42;4.30;;;;;;;;;;5032934;28;20516;-64
2023/01/11 11:37:33;;;;;;;29.70;4.03;;;;;;;;;;5034750;28;20061;-65
2023/01/11 11:39:59;;;;;;;21.13;4.57;;;;;;;;;;5026265;28;20026;-65
2023/01/11 11:42:26;;;;;;;27.75;5.38;;;;;;;;;;5027092;28;20669;-65
2023/01/11 11:45:13;;;;;;;34.45;5.22;;;;;;;;;;5035254;28;20599;-64
2023/01/11 11:47:39;;;;;;;20.42;4.70;;;;;;;;;;5029061;28;20025;-64
2023/01/11 11:50:20;;;;;;;22.85;3.78;;;;;;;;;;5034005;28;20068;-64
2023/01/11 11:52:49;;;;;;;26.20;4.60;;;;;;;;;;5034166;28;20367;-64
2023/01/11 11:55:15;;;;;;;31.88;5.07;;;;;;;;;;5032871;28;20013;-64
2023/01/11 11:57:42;;;;;;;33.20;4.40;;;;;;;;;;5030029;28;20017;-65
2023/01/11 12:00:21;;;;;;;24.45;4.25;;;;;;;;;;5031557;28;20033;-64
2023/01/11 12:02:49;;;;;;;25.75;4.22;;;;;;;;;;5034319;28;20504;-64
2023/01/11 12:05:16;;;;;;;35.30;4.63;;;;;;;;;;5033775;28;20018;-64
2023/01/11 12:07:47;;;;;;;29.48;5.03;;;;;;;;;;5029855;28;20030;-64
2023/01/11 12:10:15;;;;;;;31.42;4.15;;;;;;;;;;5034458;28;20095;-64
2023/01/11 12:13:07;;;;;;;17.15;3.80;;;;;;;;;;5026785;28;20033;-65
2023/01/11 12:15:34;;;;;;;20.07;4.20;;;;;;;;;;5013869;28;20053;-64
2023/01/11 12:18:18;;;;;;;33.33;5.32;;;;;;;;;;5023021;28;20044;-64
2023/01/11 12:20:46;;;;;;;32.55;6.38;;;;;;;;;;5033758;28;20041;-67
2023/01/11 12:23:17;;;;;;;27.85;6.40;;;;;;;;;;5043004;28;20377;-67
2023/01/11 12:26:01;;;;;;;33.38;4.15;;;;;;;;;;5039344;28;20035;-67
2023/01/11 12:28:45;;;;;;;22.67;4.72;;;;;;;;;;5017347;28;20037;-67
2023/01/11 12:31:16;;;;;;;35.97;5.88;;;;;;;;;;5034561;28;20033;-68
2023/01/11 12:33:43;;;;;;;28.65;5.28;;;;;;;;;;5030557;28;20481;-67
2023/01/11 12:36:22;;;;;;;31.35;4.75;;;;;;;;;;5035471;28;20037;-68
2023/01/11 12:38:48;;;;;;;26.42;4.40;;;;;;;;;;5029156;28;20029;-68
2023/01/11 12:41:42;;;;;;;26.52;4.22;;;;;;;;;;5031707;28;20159;-68
2023/01/11 12:44:26;;;;;;;30.48;5.47;;;;;;;;;;5033216;28;20049;-67
2023/01/11 12:46:52;;;;;;;25.73;4.03;;;;;;;;;;5033073;28;20045;-68
2023/01/11 12:49:28;;;;;;;30.13;5.15;;;;;;;;;;5032152;28;20437;-68
2023/01/11 12:52:00;;;;;;;30.23;5.55;;;;;;;;;;5029309;28;20129;-68
2023/01/11 12:54:26;;;;;;;16.90;4.05;;;;;;;;;;5033274;28;20017;-68
2023/01/11 12:56:52;;;;;;;25.25;4.78;;;;;;;;;;5040179;28;20114;-68
2023/01/11 12:59:30;;;;;;;21.35;4.60;;;;;;;;;;5028425;28;20030;-67
2023/01/11 13:02:15;;;;;;;34.08;6.85;;;;;;;;;;5032955;28;20029;-68
2023/01/11 13:04:47;;;;;;;31.25;5.80;;;;;;;;;;5025337;28;20048;-68
2023/01/11 13:07:13;;;;;;;30.88;3.90;;;;;;;;;;5031881;28;20445;-68
2023/01/11 13:09:42;;;;;;;29.55;4.95;;;;;;;;;;5033747;28;20014;-68
2023/01/11 13:12:14;;;;;;;20.02;4.82;;;;;;;;;;5031010;28;20493;-68
2023/01/11 13:14:40;;;;;;;38.20;6.27;;;;;;;;;;5022432;28;20030;-69
2023/01/11 13:17:15;;;;;;;32.15;5.43;;;;;;;;;;5029419;28;20108;-69
2023/01/11 13:20:00;;;;;;;30.13;5.78;;;;;;;;;;5028764;28;20028;-68
2023/01/11 13:22:32;;;;;;;23.77;4.53;;;;;;;;;;5029098;28;20091;-68
2023/01/11 13:25:00;;;;;;;27.27;4.50;;;;;;;;;;5031433;28;20029;-68
2023/01/11 13:27:28;;;;;;;31.70;4.85;;;;;;;;;;5031444;28;20029;-68
2023/01/11 13:29:55;;;;;;;28.77;4.68;;;;;;;;;;5028029;28;20040;-68
2023/01/11 13:32:24;;;;;;;22.83;4.25;;;;;;;;;;5026204;28;20064;-68
2023/01/11 13:35:05;;;;;;;28.00;4.95;;;;;;;;;;5030404;28;20129;-68
2023/01/11 13:37:39;;;;;;;25.67;4.97;;;;;;;;;;5030729;28;20025;-68
2023/01/11 13:40:17;;;;;;;30.10;5.07;;;;;;;;;;5025979;28;20053;-68
2023/01/11 13:42:47;;;;;;;35.97;4.63;;;;;;;;;;5028784;28;20063;-68
2023/01/11 13:45:16;;;;;;;31.15;6.18;;;;;;;;;;5029210;28;20037;-68
2023/01/11 13:48:06;;;;;;;23.63;5.40;;;;;;;;;;5028183;28;20037;-68
2023/01/11 13:50:41;;;;;;;34.60;5.10;;;;;;;;;;5025452;28;20099;-68
2023/01/11 13:53:13;;;;;;;24.20;4.90;;;;;;;;;;5023472;28;20080;-68
2023/01/11 13:55:40;;;;;;;30.17;4.93;;;;;;;;;;5029757;28;20018;-68
2023/01/11 13:58:18;;;;;;;22.95;5.03;;;;;;;;;;5027158;28;20040;-68
2023/01/11 14:00:51;;;;;;;30.88;4.88;;;;;;;;;;5029469;28;20038;-68
2023/01/11 14:03:36;;;;;;;37.58;7.68;;;;;;;;;;5031248;28;20044;-68
2023/01/11 14:06:02;;;;;;;27.98;6.25;;;;;;;;;;5029704;28;20048;-68
2023/01/11 14:08:43;;;;;;;23.52;4.82;;;;;;;;;;5029530;28;20025;-68
2023/01/11 14:11:22;;;;;;;40.38;5.72;;;;;;;;;;5027355;28;20031;-68
2023/01/11 14:14:12;;;;;;;37.75;4.50;;;;;;;;;;5030021;28;20033;-68
2023/01/11 14:16:56;;;;;;;37.15;5.40;;;;;;;;;;5027540;28;20025;-66
2023/01/11 14:19:37;;;;;;;29.20;5.00;;;;;;;;;;5021644;28;20021;-66
2023/01/11 14:22:13;;;;;;;30.08;4.78;;;;;;;;;;5030413;28;20075;-66
2023/01/11 14:24:50;;;;;;;37.78;5.93;;;;;;;;;;5020659;28;20033;-66
2023/01/11 14:27:29;;;;;;;34.85;5.50;;;;;;;;;;5022987;28;20022;-66
2023/01/11 14:30:21;;;;;;;25.60;5.70;;;;;;;;;;5018992;28;20480;-66
2023/01/11 14:33:06;;;;;;;32.45;6.13;;;;;;;;;;5012952;28;20132;-67
2023/01/11 14:35:54;;;;;;;26.70;5.13;;;;;;;;;;4974665;28;1120369;-67
2023/01/11 14:38:23;;;;;;;33.10;7.38;;;;;;;;;;5007866;28;20038;-67
2023/01/11 14:41:08;;;;;;;30.33;5.00;;;;;;;;;;5005241;28;20041;-67
2023/01/11 14:43:54;;;;;;;28.27;4.88;;;;;;;;;;4999051;28;20064;-67
2023/01/11 14:46:39;;;;;;;43.83;7.05;;;;;;;;;;5007476;28;20041;-68
2023/01/11 14:49:23;;;;;;;36.13;4.82;;;;;;;;;;4999638;28;20160;-67
2023/01/11 14:51:55;;;;;;;38.83;5.65;;;;;;;;;;5012342;28;20481;-67
2023/01/11 14:54:23;;;;;;;32.22;6.32;;;;;;;;;;5005894;28;20105;-67
2023/01/11 14:56:52;;;;;;;24.67;4.40;;;;;;;;;;5006126;28;20077;-67
2023/01/11 14:59:25;;;;;;;36.83;5.40;;;;;;;;;;5008735;28;20053;-67
2023/01/11 15:02:03;;;;;;;27.63;5.55;;;;;;;;;;5007693;28;20042;-67
2023/01/11 15:04:30;;;;;;;31.55;5.60;;;;;;;;;;5007699;28;20498;-67
2023/01/11 15:06:57;;;;;;;19.45;4.72;;;;;;;;;;5004915;28;20034;-66
2023/01/11 15:09:42;;;;;;;28.50;5.57;;;;;;;;;;4991899;28;20033;-66
2023/01/11 15:12:12;;;;;;;31.83;6.15;;;;;;;;;;5006577;28;20042;-66
2023/01/11 15:14:38;;;;;;;29.23;4.70;;;;;;;;;;5013110;28;20067;-66
2023/01/11 15:19:52;;;;;;;29.27;4.43;;;;;;;;;;5028521;28;20461;-66
2023/01/11 15:22:31;;;;;;;29.42;5.68;;;;;;;;;;5026309;28;20033;-66